This is the latest recevied weather packets stored in our database for station/object DO7VLR-5. If no packets are shown the sender has not sent any weather packets the latest 10 day(s).
| Time | Temp. | Humidity | Pressure | Rain* | Wind** | Luminosity | Snow |
|---|---|---|---|---|---|---|---|
| 1778095819 | 11.67° C | 86% | 1008.3 hPa | 0 mm | - | - | - |
| 1778094017 | 11.67° C | 85% | 1007.9 hPa | 0 mm | - | - | - |
| 1778092217 | 12.22° C | 84% | 1007.4 hPa | 0 mm | - | - | - |
| 1778090417 | 12.22° C | 84% | 1007.2 hPa | 0 mm | - | - | - |
| 1778088617 | 12.78° C | 83% | 1007 hPa | 0 mm | - | - | - |
| 1778086817 | 13.33° C | 82% | 1006.8 hPa | 0 mm | - | - | - |
| 1778085017 | 13.89° C | 81% | 1006.9 hPa | 0 mm | - | - | - |
| 1778083217 | 14.44° C | 80% | 1006.6 hPa | 0 mm | - | - | - |
| 1778081416 | 13.89° C | 83% | 1006.7 hPa | 0 mm | - | - | - |
| 1778079616 | 13.89° C | 89% | 1006.6 hPa | 0.25 mm | - | - | - |
| 1778077816 | 13.33° C | 89% | 1006.4 hPa | 0.25 mm | - | - | - |
| 1778076016 | 13.89° C | 86% | 1006.3 hPa | 0 mm | - | - | - |
| 1778074217 | 16.11° C | 74% | 1006.2 hPa | 0 mm | - | - | - |
| 1778072416 | 15.56° C | 77% | 1006.1 hPa | 0 mm | - | - | - |
| 1778070616 | 14.44° C | 82% | 1006.1 hPa | 0 mm | - | - | - |
| 1778068816 | 13.89° C | 84% | 1006.2 hPa | 0 mm | - | - | - |
| 1778067016 | 14.44° C | 82% | 1006 hPa | 0 mm | - | - | - |
| 1778065216 | 15° C | 80% | 1006 hPa | 0 mm | - | - | - |
| 1778063416 | 14.44° C | 81% | 1006.1 hPa | 0 mm | - | - | - |
| 1778061617 | 13.33° C | 87% | 1005.9 hPa | 0 mm | - | - | - |
| 1778059816 | 12.78° C | 88% | 1006 hPa | 0 mm | - | - | - |
| 1778058016 | 12.78° C | 89% | 1005.8 hPa | 0 mm | - | - | - |
| 1778056215 | 12.78° C | 88% | 1005.6 hPa | 0 mm | - | - | - |
| 1778054416 | 12.22° C | 89% | 1005.4 hPa | 0 mm | - | - | - |
| 1778052618 | 12.22° C | 89% | 1005.6 hPa | 0 mm | - | - | - |
* Rain latest hour (hover to see other rain measurements)
** Current wind speed in m/s (hover to see current wind gust speed)